Time,TemperatureF,DewpointF,PressureIn,WindDirection,WindDirectionDegrees,WindSpeedMPH,WindSpeedGustMPH,Humidity,HourlyPrecipIn,Conditions,Clouds,dailyrainin,SolarRadiationWatts/m^2,SoftwareType,DateUTC
2013-11-12 00:11:00,53.0,28.0,-100.00,ENE,65,14.0,21.0,38,0.00,,,0.00,0.000000,,2013-11-12 07:11:00,
2013-11-12 00:21:00,53.0,28.0,-100.00,ENE,65,14.0,21.0,38,0.00,,,0.00,0.000000,,2013-11-12 07:21:00,
2013-11-12 00:32:00,53.0,28.0,-100.00,ENE,65,14.0,21.0,38,0.00,,,0.00,0.000000,,2013-11-12 07:32:00,
2013-11-12 01:11:00,52.0,28.0,-100.00,ENE,59,10.0,19.0,40,0.00,,,0.00,0.000000,,2013-11-12 08:11:00,
2013-11-12 01:21:00,52.0,28.0,-100.00,ENE,59,10.0,19.0,40,0.00,,,0.00,0.000000,,2013-11-12 08:21:00,
2013-11-12 01:32:00,52.0,28.0,-100.00,ENE,59,10.0,19.0,40,0.00,,,0.00,0.000000,,2013-11-12 08:32:00,
2013-11-12 02:12:00,52.0,28.0,-100.00,ENE,60,16.0,21.0,40,0.00,,,0.00,0.000000,,2013-11-12 09:12:00,
2013-11-12 02:21:00,52.0,28.0,-100.00,ENE,60,16.0,21.0,40,0.00,,,0.00,0.000000,,2013-11-12 09:21:00,
2013-11-12 02:33:00,52.0,28.0,-100.00,ENE,60,16.0,21.0,40,0.00,,,0.00,0.000000,,2013-11-12 09:33:00,
2013-11-12 03:12:00,52.0,30.0,-100.00,ENE,61,19.0,28.0,42,0.00,,,0.00,0.000000,,2013-11-12 10:12:00,
2013-11-12 03:23:00,52.0,30.0,-100.00,ENE,61,19.0,28.0,42,0.00,,,0.00,0.000000,,2013-11-12 10:23:00,
2013-11-12 03:32:00,52.0,30.0,-100.00,ENE,61,19.0,28.0,42,0.00,,,0.00,0.000000,,2013-11-12 10:32:00,
2013-11-12 04:12:00,52.0,27.0,-100.00,ENE,67,17.0,26.0,37,0.00,,,0.00,0.000000,,2013-11-12 11:12:00,
2013-11-12 04:22:00,52.0,27.0,-100.00,ENE,67,17.0,26.0,37,0.00,,,0.00,0.000000,,2013-11-12 11:22:00,
2013-11-12 04:32:00,52.0,27.0,-100.00,ENE,67,17.0,26.0,37,0.00,,,0.00,0.000000,,2013-11-12 11:32:00,
2013-11-12 05:11:00,51.0,27.0,-100.00,ENE,62,18.0,26.0,39,0.00,,,0.00,0.000000,,2013-11-12 12:11:00,
2013-11-12 05:21:00,51.0,27.0,-100.00,ENE,62,18.0,26.0,39,0.00,,,0.00,0.000000,,2013-11-12 12:21:00,
2013-11-12 05:31:00,51.0,27.0,-100.00,ENE,62,18.0,26.0,39,0.00,,,0.00,0.000000,,2013-11-12 12:31:00,
2013-11-12 06:11:00,51.0,24.0,-100.00,ENE,65,19.0,31.0,35,0.00,,,0.00,0.000000,,2013-11-12 13:11:00,
2013-11-12 06:22:00,51.0,24.0,-100.00,ENE,65,19.0,31.0,35,0.00,,,0.00,0.000000,,2013-11-12 13:22:00,
2013-11-12 06:31:00,51.0,24.0,-100.00,ENE,65,19.0,31.0,35,0.00,,,0.00,0.000000,,2013-11-12 13:31:00,
2013-11-12 07:11:00,49.0,22.0,-100.00,ENE,58,17.0,29.0,34,0.00,,,0.00,0.000000,,2013-11-12 14:11:00,
2013-11-12 07:21:00,49.0,22.0,-100.00,ENE,58,17.0,29.0,34,0.00,,,0.00,0.000000,,2013-11-12 14:21:00,
2013-11-12 07:32:00,49.0,22.0,-100.00,ENE,58,17.0,29.0,34,0.00,,,0.00,0.000000,,2013-11-12 14:32:00,
2013-11-12 08:11:00,53.0,26.0,-100.00,East,79,16.0,27.0,35,0.00,,,0.00,53.000000,,2013-11-12 15:11:00,
2013-11-12 08:21:00,53.0,26.0,-100.00,East,79,16.0,27.0,35,0.00,,,0.00,53.000000,,2013-11-12 15:21:00,
2013-11-12 08:33:00,53.0,26.0,-100.00,East,79,16.0,27.0,35,0.00,,,0.00,53.000000,,2013-11-12 15:33:00,
2013-11-12 09:12:00,56.0,32.0,-100.00,ENE,75,17.0,32.0,40,0.00,,,0.00,294.000000,,2013-11-12 16:12:00,
2013-11-12 09:23:00,56.0,32.0,-100.00,ENE,75,17.0,32.0,40,0.00,,,0.00,294.000000,,2013-11-12 16:23:00,
2013-11-12 09:33:00,56.0,32.0,-100.00,ENE,75,17.0,32.0,40,0.00,,,0.00,294.000000,,2013-11-12 16:33:00,
2013-11-12 10:12:00,58.0,33.0,-100.00,ENE,72,17.0,27.0,39,0.00,,,0.00,528.000000,,2013-11-12 17:12:00,
2013-11-12 10:22:00,58.0,33.0,-100.00,ENE,72,17.0,27.0,39,0.00,,,0.00,528.000000,,2013-11-12 17:22:00,
2013-11-12 10:33:00,58.0,33.0,-100.00,ENE,72,17.0,27.0,39,0.00,,,0.00,528.000000,,2013-11-12 17:33:00,
2013-11-12 11:12:00,60.0,34.0,-100.00,ENE,77,13.0,26.0,38,0.00,,,0.00,716.000000,,2013-11-12 18:12:00,
2013-11-12 11:23:00,60.0,34.0,-100.00,ENE,77,13.0,26.0,38,0.00,,,0.00,716.000000,,2013-11-12 18:23:00,
2013-11-12 11:31:00,60.0,34.0,-100.00,ENE,77,13.0,26.0,38,0.00,,,0.00,716.000000,,2013-11-12 18:31:00,
2013-11-12 12:11:00,60.0,36.0,-100.00,East,86,14.0,22.0,41,0.00,,,0.00,801.000000,,2013-11-12 19:11:00,
2013-11-12 12:21:00,60.0,36.0,-100.00,East,86,14.0,22.0,41,0.00,,,0.00,801.000000,,2013-11-12 19:21:00,
2013-11-12 12:32:00,60.0,36.0,-100.00,East,86,14.0,22.0,41,0.00,,,0.00,801.000000,,2013-11-12 19:32:00,
2013-11-12 13:11:00,62.0,35.0,-100.00,ENE,74,13.0,23.0,37,0.00,,,0.00,816.000000,,2013-11-12 20:11:00,
2013-11-12 13:21:00,62.0,35.0,-100.00,ENE,74,13.0,23.0,37,0.00,,,0.00,816.000000,,2013-11-12 20:21:00,
2013-11-12 13:31:00,62.0,35.0,-100.00,ENE,74,13.0,23.0,37,0.00,,,0.00,816.000000,,2013-11-12 20:31:00,
2013-11-12 14:12:00,61.0,36.0,-100.00,ENE,67,14.0,23.0,40,0.00,,,0.00,801.000000,,2013-11-12 21:12:00,
2013-11-12 14:22:00,61.0,36.0,-100.00,ENE,67,14.0,23.0,40,0.00,,,0.00,801.000000,,2013-11-12 21:22:00,
2013-11-12 14:34:00,61.0,36.0,-100.00,ENE,67,14.0,23.0,40,0.00,,,0.00,801.000000,,2013-11-12 21:34:00,
2013-11-12 15:14:00,62.0,37.0,-100.00,ENE,69,13.0,23.0,40,0.00,,,0.00,728.000000,,2013-11-12 22:14:00,
2013-11-12 15:24:00,62.0,37.0,-100.00,ENE,69,13.0,23.0,40,0.00,,,0.00,728.000000,,2013-11-12 22:24:00,
2013-11-12 15:33:00,62.0,37.0,-100.00,ENE,69,13.0,23.0,40,0.00,,,0.00,728.000000,,2013-11-12 22:33:00,
2013-11-12 16:12:00,58.0,37.0,-100.00,ENE,59,15.0,24.0,46,0.00,,,0.00,569.000000,,2013-11-12 23:12:00,
2013-11-12 16:23:00,58.0,37.0,-100.00,ENE,59,15.0,24.0,46,0.00,,,0.00,569.000000,,2013-11-12 23:23:00,
2013-11-12 16:33:00,58.0,37.0,-100.00,ENE,59,15.0,24.0,46,0.00,,,0.00,569.000000,,2013-11-12 23:33:00,
2013-11-12 17:11:00,55.0,39.0,-100.00,ENE,61,15.0,23.0,54,0.00,,,0.00,322.000000,,2013-11-13 00:11:00,
2013-11-12 17:22:00,55.0,39.0,-100.00,ENE,61,15.0,23.0,54,0.00,,,0.00,322.000000,,2013-11-13 00:22:00,
2013-11-12 17:32:00,55.0,39.0,-100.00,ENE,61,15.0,23.0,54,0.00,,,0.00,322.000000,,2013-11-13 00:32:00,
2013-11-12 18:11:00,50.0,38.0,-100.00,NE,55,14.0,23.0,64,0.00,,,0.00,70.000000,,2013-11-13 01:11:00,
2013-11-12 18:22:00,50.0,38.0,-100.00,NE,55,14.0,23.0,64,0.00,,,0.00,70.000000,,2013-11-13 01:22:00,
2013-11-12 18:32:00,50.0,38.0,-100.00,NE,55,14.0,23.0,64,0.00,,,0.00,70.000000,,2013-11-13 01:32:00,
2013-11-12 19:11:00,49.0,38.0,-100.00,ENE,60,19.0,28.0,65,0.00,,,0.00,0.000000,,2013-11-13 02:11:00,
2013-11-12 19:22:00,49.0,38.0,-100.00,ENE,60,19.0,28.0,65,0.00,,,0.00,0.000000,,2013-11-13 02:22:00,
2013-11-12 19:32:00,49.0,38.0,-100.00,ENE,60,19.0,28.0,65,0.00,,,0.00,0.000000,,2013-11-13 02:32:00,
2013-11-12 20:11:00,47.0,36.0,-100.00,ENE,57,20.0,30.0,65,0.00,,,0.00,0.000000,,2013-11-13 03:11:00,
2013-11-12 20:22:00,47.0,36.0,-100.00,ENE,57,20.0,30.0,65,0.00,,,0.00,0.000000,,2013-11-13 03:22:00,
2013-11-12 20:34:00,47.0,36.0,-100.00,ENE,57,20.0,30.0,65,0.00,,,0.00,0.000000,,2013-11-13 03:34:00,
2013-11-12 21:14:00,46.0,35.0,-100.00,ENE,58,21.0,33.0,65,0.00,,,0.00,0.000000,,2013-11-13 04:14:00,
2013-11-12 21:23:00,46.0,35.0,-100.00,ENE,58,21.0,33.0,65,0.00,,,0.00,0.000000,,2013-11-13 04:23:00,
2013-11-12 21:34:00,46.0,35.0,-100.00,ENE,58,21.0,33.0,65,0.00,,,0.00,0.000000,,2013-11-13 04:34:00,
2013-11-12 22:13:00,46.0,35.0,-100.00,ENE,58,23.0,31.0,66,0.00,,,0.00,0.000000,,2013-11-13 05:13:00,
2013-11-12 22:23:00,46.0,35.0,-100.00,ENE,58,23.0,31.0,66,0.00,,,0.00,0.000000,,2013-11-13 05:23:00,
2013-11-12 22:33:00,46.0,35.0,-100.00,ENE,58,23.0,31.0,66,0.00,,,0.00,0.000000,,2013-11-13 05:33:00,
2013-11-12 23:13:00,45.0,36.0,-100.00,ENE,61,21.0,34.0,70,0.00,,,-99.99,0.000000,,2013-11-13 06:13:00,
2013-11-12 23:22:00,45.0,36.0,-100.00,ENE,61,21.0,34.0,70,0.00,,,-99.99,0.000000,,2013-11-13 06:22:00,
2013-11-12 23:32:00,45.0,36.0,-100.00,ENE,61,21.0,34.0,70,0.00,,,-99.99,0.000000,,2013-11-13 06:32:00,